sensor_id;sensor_type;location;lat;lon;timestamp;P1;durP1;ratioP1;P2;durP2;ratioP2
8837;SDS011;4455;50.880;4.698;2022-07-15T00:00:34;14.33;;;5.93;;
8837;SDS011;4455;50.880;4.698;2022-07-15T00:03:01;5.27;;;3.03;;
8837;SDS011;4455;50.880;4.698;2022-07-15T00:05:27;6.27;;;3.03;;
8837;SDS011;4455;50.880;4.698;2022-07-15T00:07:53;7.07;;;3.00;;
8837;SDS011;4455;50.880;4.698;2022-07-15T00:10:19;7.83;;;3.10;;
8837;SDS011;4455;50.880;4.698;2022-07-15T00:12:49;7.87;;;2.73;;
8837;SDS011;4455;50.880;4.698;2022-07-15T00:15:16;9.90;;;4.10;;
8837;SDS011;4455;50.880;4.698;2022-07-15T00:17:44;6.63;;;2.67;;
8837;SDS011;4455;50.880;4.698;2022-07-15T00:20:12;5.50;;;2.53;;
8837;SDS011;4455;50.880;4.698;2022-07-15T00:22:38;7.30;;;3.03;;
8837;SDS011;4455;50.880;4.698;2022-07-15T00:25:05;4.80;;;2.53;;
8837;SDS011;4455;50.880;4.698;2022-07-15T00:27:31;5.33;;;2.83;;
8837;SDS011;4455;50.880;4.698;2022-07-15T00:29:57;5.30;;;2.37;;
8837;SDS011;4455;50.880;4.698;2022-07-15T00:32:23;8.57;;;2.80;;
8837;SDS011;4455;50.880;4.698;2022-07-15T00:34:49;5.53;;;2.77;;
8837;SDS011;4455;50.880;4.698;2022-07-15T00:37:16;7.17;;;2.77;;
8837;SDS011;4455;50.880;4.698;2022-07-15T00:39:43;5.97;;;3.10;;
8837;SDS011;4455;50.880;4.698;2022-07-15T00:42:13;4.70;;;2.93;;
8837;SDS011;4455;50.880;4.698;2022-07-15T00:44:59;7.07;;;3.00;;
8837;SDS011;4455;50.880;4.698;2022-07-15T00:47:25;8.77;;;2.90;;
8837;SDS011;4455;50.880;4.698;2022-07-15T00:49:52;5.87;;;2.97;;
8837;SDS011;4455;50.880;4.698;2022-07-15T00:52:18;6.03;;;2.87;;
8837;SDS011;4455;50.880;4.698;2022-07-15T00:54:47;6.17;;;2.93;;
8837;SDS011;4455;50.880;4.698;2022-07-15T00:57:17;6.17;;;2.90;;
8837;SDS011;4455;50.880;4.698;2022-07-15T00:59:44;5.37;;;3.17;;
8837;SDS011;4455;50.880;4.698;2022-07-15T01:02:12;5.60;;;2.70;;
8837;SDS011;4455;50.880;4.698;2022-07-15T01:04:40;7.93;;;2.80;;
8837;SDS011;4455;50.880;4.698;2022-07-15T01:07:06;7.27;;;2.90;;
8837;SDS011;4455;50.880;4.698;2022-07-15T01:09:32;5.53;;;2.93;;
8837;SDS011;4455;50.880;4.698;2022-07-15T01:11:58;6.03;;;3.07;;
8837;SDS011;4455;50.880;4.698;2022-07-15T01:14:25;7.43;;;2.90;;
8837;SDS011;4455;50.880;4.698;2022-07-15T01:16:51;6.03;;;2.73;;
8837;SDS011;4455;50.880;4.698;2022-07-15T01:19:17;7.37;;;3.00;;
8837;SDS011;4455;50.880;4.698;2022-07-15T01:21:45;7.43;;;3.03;;
8837;SDS011;4455;50.880;4.698;2022-07-15T01:24:11;5.60;;;3.00;;
8837;SDS011;4455;50.880;4.698;2022-07-15T01:26:37;5.33;;;3.03;;
8837;SDS011;4455;50.880;4.698;2022-07-15T01:29:03;5.70;;;2.73;;
8837;SDS011;4455;50.880;4.698;2022-07-15T01:31:29;7.37;;;3.00;;
8837;SDS011;4455;50.880;4.698;2022-07-15T01:33:55;4.47;;;2.80;;
8837;SDS011;4455;50.880;4.698;2022-07-15T01:36:21;5.47;;;3.03;;
8837;SDS011;4455;50.880;4.698;2022-07-15T01:38:48;5.27;;;3.20;;
8837;SDS011;4455;50.880;4.698;2022-07-15T01:41:16;6.87;;;3.00;;
8837;SDS011;4455;50.880;4.698;2022-07-15T01:43:43;3.50;;;2.50;;
8837;SDS011;4455;50.880;4.698;2022-07-15T01:46:09;6.80;;;3.00;;
8837;SDS011;4455;50.880;4.698;2022-07-15T01:48:36;7.00;;;2.87;;
8837;SDS011;4455;50.880;4.698;2022-07-15T01:51:20;8.07;;;3.30;;
8837;SDS011;4455;50.880;4.698;2022-07-15T01:53:46;9.30;;;2.90;;
8837;SDS011;4455;50.880;4.698;2022-07-15T01:56:12;5.70;;;2.87;;
8837;SDS011;4455;50.880;4.698;2022-07-15T01:58:39;5.07;;;3.10;;
8837;SDS011;4455;50.880;4.698;2022-07-15T02:01:07;4.50;;;2.93;;
8837;SDS011;4455;50.880;4.698;2022-07-15T02:03:33;8.60;;;3.07;;
8837;SDS011;4455;50.880;4.698;2022-07-15T02:05:58;6.23;;;3.13;;
8837;SDS011;4455;50.880;4.698;2022-07-15T02:08:24;9.40;;;3.20;;
8837;SDS011;4455;50.880;4.698;2022-07-15T02:10:50;9.20;;;3.40;;
8837;SDS011;4455;50.880;4.698;2022-07-15T02:13:17;7.77;;;2.80;;
8837;SDS011;4455;50.880;4.698;2022-07-15T02:15:53;5.03;;;2.57;;
8837;SDS011;4455;50.880;4.698;2022-07-15T02:20:47;5.43;;;3.03;;
8837;SDS011;4455;50.880;4.698;2022-07-15T02:23:13;8.17;;;3.13;;
8837;SDS011;4455;50.880;4.698;2022-07-15T02:25:39;10.67;;;3.17;;
8837;SDS011;4455;50.880;4.698;2022-07-15T02:28:06;8.47;;;3.10;;
8837;SDS011;4455;50.880;4.698;2022-07-15T02:30:34;10.83;;;2.77;;
8837;SDS011;4455;50.880;4.698;2022-07-15T02:33:03;5.93;;;2.47;;
8837;SDS011;4455;50.880;4.698;2022-07-15T02:35:30;5.77;;;3.03;;
8837;SDS011;4455;50.880;4.698;2022-07-15T02:37:58;10.83;;;3.43;;
8837;SDS011;4455;50.880;4.698;2022-07-15T02:40:26;6.60;;;2.30;;
8837;SDS011;4455;50.880;4.698;2022-07-15T02:42:55;7.20;;;3.10;;
8837;SDS011;4455;50.880;4.698;2022-07-15T02:45:23;10.30;;;3.20;;
8837;SDS011;4455;50.880;4.698;2022-07-15T02:47:51;7.67;;;3.00;;
8837;SDS011;4455;50.880;4.698;2022-07-15T02:50:18;10.77;;;2.97;;
8837;SDS011;4455;50.880;4.698;2022-07-15T02:52:44;8.23;;;2.70;;
8837;SDS011;4455;50.880;4.698;2022-07-15T02:55:11;6.20;;;2.90;;
8837;SDS011;4455;50.880;4.698;2022-07-15T02:57:38;7.07;;;3.33;;
8837;SDS011;4455;50.880;4.698;2022-07-15T03:00:07;8.27;;;3.00;;
8837;SDS011;4455;50.880;4.698;2022-07-15T03:02:35;7.23;;;3.07;;
8837;SDS011;4455;50.880;4.698;2022-07-15T03:05:02;7.23;;;2.80;;
8837;SDS011;4455;50.880;4.698;2022-07-15T03:07:29;5.00;;;2.40;;
8837;SDS011;4455;50.880;4.698;2022-07-15T03:09:55;5.23;;;2.87;;
8837;SDS011;4455;50.880;4.698;2022-07-15T03:12:22;5.77;;;2.90;;
8837;SDS011;4455;50.880;4.698;2022-07-15T03:14:49;5.50;;;2.90;;
8837;SDS011;4455;50.880;4.698;2022-07-15T03:17:15;8.93;;;3.07;;
8837;SDS011;4455;50.880;4.698;2022-07-15T03:19:41;7.00;;;3.20;;
8837;SDS011;4455;50.880;4.698;2022-07-15T03:22:08;6.33;;;2.90;;
8837;SDS011;4455;50.880;4.698;2022-07-15T03:24:33;7.37;;;2.83;;
8837;SDS011;4455;50.880;4.698;2022-07-15T03:27:00;6.53;;;2.67;;
8837;SDS011;4455;50.880;4.698;2022-07-15T03:29:26;7.33;;;2.97;;
8837;SDS011;4455;50.880;4.698;2022-07-15T03:31:54;6.50;;;2.70;;
8837;SDS011;4455;50.880;4.698;2022-07-15T03:34:21;7.67;;;2.80;;
8837;SDS011;4455;50.880;4.698;2022-07-15T03:36:50;6.03;;;3.00;;
8837;SDS011;4455;50.880;4.698;2022-07-15T03:39:16;8.67;;;2.90;;
8837;SDS011;4455;50.880;4.698;2022-07-15T03:41:42;4.13;;;2.50;;
8837;SDS011;4455;50.880;4.698;2022-07-15T03:44:08;5.63;;;2.77;;
8837;SDS011;4455;50.880;4.698;2022-07-15T03:46:35;6.60;;;2.67;;
8837;SDS011;4455;50.880;4.698;2022-07-15T03:49:01;8.60;;;3.10;;
8837;SDS011;4455;50.880;4.698;2022-07-15T03:54:00;7.63;;;2.90;;
8837;SDS011;4455;50.880;4.698;2022-07-15T03:56:27;6.50;;;2.97;;
8837;SDS011;4455;50.880;4.698;2022-07-15T03:58:54;6.90;;;3.00;;
8837;SDS011;4455;50.880;4.698;2022-07-15T04:01:20;3.53;;;2.80;;
8837;SDS011;4455;50.880;4.698;2022-07-15T04:03:49;5.10;;;2.60;;
8837;SDS011;4455;50.880;4.698;2022-07-15T04:06:17;7.93;;;2.90;;
8837;SDS011;4455;50.880;4.698;2022-07-15T04:08:44;6.27;;;3.20;;
8837;SDS011;4455;50.880;4.698;2022-07-15T04:11:11;5.13;;;2.70;;
8837;SDS011;4455;50.880;4.698;2022-07-15T04:13:38;7.97;;;3.33;;
8837;SDS011;4455;50.880;4.698;2022-07-15T04:16:05;6.63;;;3.00;;
8837;SDS011;4455;50.880;4.698;2022-07-15T04:18:32;7.93;;;3.27;;
8837;SDS011;4455;50.880;4.698;2022-07-15T04:20:58;7.23;;;3.13;;
8837;SDS011;4455;50.880;4.698;2022-07-15T04:23:24;6.50;;;2.73;;
8837;SDS011;4455;50.880;4.698;2022-07-15T04:25:50;5.07;;;2.73;;
8837;SDS011;4455;50.880;4.698;2022-07-15T04:28:17;8.90;;;2.80;;
8837;SDS011;4455;50.880;4.698;2022-07-15T04:30:44;6.33;;;2.87;;
8837;SDS011;4455;50.880;4.698;2022-07-15T04:33:11;6.27;;;2.90;;
8837;SDS011;4455;50.880;4.698;2022-07-15T04:35:38;5.53;;;3.07;;
8837;SDS011;4455;50.880;4.698;2022-07-15T04:38:05;5.50;;;2.97;;
8837;SDS011;4455;50.880;4.698;2022-07-15T04:40:31;6.33;;;2.83;;
8837;SDS011;4455;50.880;4.698;2022-07-15T04:42:58;4.33;;;2.80;;
8837;SDS011;4455;50.880;4.698;2022-07-15T04:45:24;6.10;;;3.10;;
8837;SDS011;4455;50.880;4.698;2022-07-15T04:47:51;6.70;;;3.57;;
8837;SDS011;4455;50.880;4.698;2022-07-15T04:50:17;8.23;;;3.13;;
8837;SDS011;4455;50.880;4.698;2022-07-15T04:53:02;5.33;;;3.00;;
8837;SDS011;4455;50.880;4.698;2022-07-15T04:55:29;5.77;;;3.30;;
8837;SDS011;4455;50.880;4.698;2022-07-15T04:57:55;5.57;;;3.30;;
8837;SDS011;4455;50.880;4.698;2022-07-15T05:00:21;12.77;;;3.87;;
8837;SDS011;4455;50.880;4.698;2022-07-15T05:02:48;4.60;;;3.20;;
8837;SDS011;4455;50.880;4.698;2022-07-15T05:05:14;4.30;;;3.23;;
8837;SDS011;4455;50.880;4.698;2022-07-15T05:07:40;7.50;;;3.87;;
8837;SDS011;4455;50.880;4.698;2022-07-15T05:10:06;8.83;;;3.17;;
8837;SDS011;4455;50.880;4.698;2022-07-15T05:12:34;6.40;;;3.23;;
8837;SDS011;4455;50.880;4.698;2022-07-15T05:15:00;6.30;;;3.77;;
8837;SDS011;4455;50.880;4.698;2022-07-15T05:17:27;9.07;;;3.50;;
8837;SDS011;4455;50.880;4.698;2022-07-15T05:19:53;9.17;;;3.77;;
8837;SDS011;4455;50.880;4.698;2022-07-15T05:22:21;8.83;;;3.60;;
8837;SDS011;4455;50.880;4.698;2022-07-15T05:24:48;6.33;;;3.60;;
8837;SDS011;4455;50.880;4.698;2022-07-15T05:27:15;8.33;;;3.73;;
8837;SDS011;4455;50.880;4.698;2022-07-15T05:29:41;6.87;;;3.63;;
8837;SDS011;4455;50.880;4.698;2022-07-15T05:32:07;6.00;;;3.77;;
8837;SDS011;4455;50.880;4.698;2022-07-15T05:34:34;8.30;;;4.13;;
8837;SDS011;4455;50.880;4.698;2022-07-15T05:37:00;8.10;;;4.63;;
8837;SDS011;4455;50.880;4.698;2022-07-15T05:39:26;6.27;;;3.90;;
8837;SDS011;4455;50.880;4.698;2022-07-15T05:41:52;8.13;;;4.23;;
8837;SDS011;4455;50.880;4.698;2022-07-15T05:44:18;6.33;;;3.83;;
8837;SDS011;4455;50.880;4.698;2022-07-15T05:46:45;10.30;;;4.23;;
8837;SDS011;4455;50.880;4.698;2022-07-15T05:49:11;6.07;;;3.60;;
8837;SDS011;4455;50.880;4.698;2022-07-15T05:51:37;8.57;;;4.00;;
8837;SDS011;4455;50.880;4.698;2022-07-15T05:54:03;6.63;;;3.87;;
8837;SDS011;4455;50.880;4.698;2022-07-15T05:56:29;5.57;;;3.63;;
8837;SDS011;4455;50.880;4.698;2022-07-15T05:58:55;6.60;;;3.07;;
8837;SDS011;4455;50.880;4.698;2022-07-15T06:01:20;11.40;;;4.23;;
8837;SDS011;4455;50.880;4.698;2022-07-15T06:03:48;9.70;;;3.03;;
8837;SDS011;4455;50.880;4.698;2022-07-15T06:06:15;9.50;;;3.43;;
8837;SDS011;4455;50.880;4.698;2022-07-15T06:08:42;8.70;;;3.27;;
8837;SDS011;4455;50.880;4.698;2022-07-15T06:11:08;6.07;;;3.17;;
8837;SDS011;4455;50.880;4.698;2022-07-15T06:13:37;7.13;;;3.23;;
8837;SDS011;4455;50.880;4.698;2022-07-15T06:16:03;7.23;;;2.73;;
8837;SDS011;4455;50.880;4.698;2022-07-15T06:18:30;6.30;;;2.67;;
8837;SDS011;4455;50.880;4.698;2022-07-15T06:20:56;7.80;;;2.43;;
8837;SDS011;4455;50.880;4.698;2022-07-15T06:23:23;7.97;;;3.20;;
8837;SDS011;4455;50.880;4.698;2022-07-15T06:25:49;7.30;;;2.50;;
8837;SDS011;4455;50.880;4.698;2022-07-15T06:28:15;7.57;;;2.40;;
8837;SDS011;4455;50.880;4.698;2022-07-15T06:30:41;4.47;;;2.30;;
8837;SDS011;4455;50.880;4.698;2022-07-15T06:33:07;3.57;;;1.93;;
8837;SDS011;4455;50.880;4.698;2022-07-15T06:35:34;5.40;;;1.90;;
8837;SDS011;4455;50.880;4.698;2022-07-15T06:37:59;5.97;;;2.10;;
8837;SDS011;4455;50.880;4.698;2022-07-15T06:40:26;5.77;;;2.60;;
8837;SDS011;4455;50.880;4.698;2022-07-15T06:42:51;10.90;;;2.70;;
8837;SDS011;4455;50.880;4.698;2022-07-15T06:45:17;7.60;;;2.70;;
8837;SDS011;4455;50.880;4.698;2022-07-15T06:47:43;6.80;;;2.27;;
8837;SDS011;4455;50.880;4.698;2022-07-15T06:50:10;8.03;;;2.63;;
8837;SDS011;4455;50.880;4.698;2022-07-15T06:52:38;6.07;;;2.30;;
8837;SDS011;4455;50.880;4.698;2022-07-15T06:55:04;6.67;;;2.00;;
8837;SDS011;4455;50.880;4.698;2022-07-15T06:57:32;4.27;;;1.80;;
8837;SDS011;4455;50.880;4.698;2022-07-15T07:00:00;3.77;;;1.63;;
8837;SDS011;4455;50.880;4.698;2022-07-15T07:02:26;6.07;;;2.00;;
8837;SDS011;4455;50.880;4.698;2022-07-15T07:04:53;5.17;;;2.00;;
8837;SDS011;4455;50.880;4.698;2022-07-15T07:07:19;4.27;;;2.00;;
8837;SDS011;4455;50.880;4.698;2022-07-15T07:09:45;4.20;;;2.00;;
8837;SDS011;4455;50.880;4.698;2022-07-15T07:12:13;3.73;;;1.83;;
8837;SDS011;4455;50.880;4.698;2022-07-15T07:14:38;2.13;;;1.30;;
8837;SDS011;4455;50.880;4.698;2022-07-15T07:17:04;4.57;;;1.70;;
8837;SDS011;4455;50.880;4.698;2022-07-15T07:19:31;6.57;;;1.80;;
8837;SDS011;4455;50.880;4.698;2022-07-15T07:21:57;3.77;;;2.07;;
8837;SDS011;4455;50.880;4.698;2022-07-15T07:24:23;5.20;;;1.77;;
8837;SDS011;4455;50.880;4.698;2022-07-15T07:26:48;3.63;;;1.47;;
8837;SDS011;4455;50.880;4.698;2022-07-15T07:29:14;3.70;;;1.43;;
8837;SDS011;4455;50.880;4.698;2022-07-15T07:31:47;5.13;;;1.70;;
8837;SDS011;4455;50.880;4.698;2022-07-15T07:34:16;4.83;;;1.53;;
8837;SDS011;4455;50.880;4.698;2022-07-15T07:36:43;2.47;;;1.40;;
8837;SDS011;4455;50.880;4.698;2022-07-15T07:39:10;5.73;;;1.70;;
8837;SDS011;4455;50.880;4.698;2022-07-15T07:41:36;2.00;;;1.30;;
8837;SDS011;4455;50.880;4.698;2022-07-15T07:44:02;5.90;;;1.60;;
8837;SDS011;4455;50.880;4.698;2022-07-15T07:46:28;5.40;;;1.73;;
8837;SDS011;4455;50.880;4.698;2022-07-15T07:48:53;2.80;;;1.30;;
8837;SDS011;4455;50.880;4.698;2022-07-15T07:51:20;5.20;;;1.80;;
8837;SDS011;4455;50.880;4.698;2022-07-15T07:53:46;4.73;;;1.67;;
8837;SDS011;4455;50.880;4.698;2022-07-15T07:56:12;5.80;;;1.83;;
8837;SDS011;4455;50.880;4.698;2022-07-15T07:58:38;1.93;;;1.40;;
8837;SDS011;4455;50.880;4.698;2022-07-15T08:01:04;3.83;;;1.47;;
8837;SDS011;4455;50.880;4.698;2022-07-15T08:03:30;2.30;;;1.43;;
8837;SDS011;4455;50.880;4.698;2022-07-15T08:05:56;4.13;;;1.70;;
8837;SDS011;4455;50.880;4.698;2022-07-15T08:08:22;4.40;;;1.57;;
8837;SDS011;4455;50.880;4.698;2022-07-15T08:10:49;4.53;;;1.73;;
8837;SDS011;4455;50.880;4.698;2022-07-15T08:13:17;6.50;;;1.73;;
8837;SDS011;4455;50.880;4.698;2022-07-15T08:15:45;3.77;;;1.50;;
8837;SDS011;4455;50.880;4.698;2022-07-15T08:18:12;4.57;;;1.40;;
8837;SDS011;4455;50.880;4.698;2022-07-15T08:20:41;3.73;;;1.80;;
8837;SDS011;4455;50.880;4.698;2022-07-15T08:23:07;4.93;;;1.60;;
8837;SDS011;4455;50.880;4.698;2022-07-15T08:25:35;4.97;;;1.37;;
8837;SDS011;4455;50.880;4.698;2022-07-15T08:28:04;4.10;;;1.47;;
8837;SDS011;4455;50.880;4.698;2022-07-15T08:30:31;4.27;;;1.40;;
8837;SDS011;4455;50.880;4.698;2022-07-15T08:32:58;5.47;;;1.70;;
8837;SDS011;4455;50.880;4.698;2022-07-15T08:35:25;4.43;;;1.47;;
8837;SDS011;4455;50.880;4.698;2022-07-15T08:37:52;4.47;;;1.63;;
8837;SDS011;4455;50.880;4.698;2022-07-15T08:40:18;4.17;;;1.63;;
8837;SDS011;4455;50.880;4.698;2022-07-15T08:42:44;2.67;;;1.40;;
8837;SDS011;4455;50.880;4.698;2022-07-15T08:45:12;5.13;;;1.30;;
8837;SDS011;4455;50.880;4.698;2022-07-15T08:47:40;3.47;;;1.10;;
8837;SDS011;4455;50.880;4.698;2022-07-15T08:50:10;3.57;;;1.10;;
8837;SDS011;4455;50.880;4.698;2022-07-15T08:52:40;4.50;;;1.63;;
8837;SDS011;4455;50.880;4.698;2022-07-15T08:55:09;3.87;;;1.40;;
8837;SDS011;4455;50.880;4.698;2022-07-15T08:57:35;3.03;;;1.30;;
8837;SDS011;4455;50.880;4.698;2022-07-15T09:00:02;2.67;;;1.43;;
8837;SDS011;4455;50.880;4.698;2022-07-15T09:02:32;3.70;;;1.70;;
8837;SDS011;4455;50.880;4.698;2022-07-15T09:07:51;4.93;;;1.60;;
8837;SDS011;4455;50.880;4.698;2022-07-15T09:10:23;4.27;;;1.60;;
8837;SDS011;4455;50.880;4.698;2022-07-15T09:12:51;4.17;;;1.50;;
8837;SDS011;4455;50.880;4.698;2022-07-15T09:15:31;4.57;;;1.60;;
8837;SDS011;4455;50.880;4.698;2022-07-15T09:18:14;4.10;;;1.37;;
8837;SDS011;4455;50.880;4.698;2022-07-15T09:20:42;2.70;;;1.50;;
8837;SDS011;4455;50.880;4.698;2022-07-15T09:23:09;2.97;;;1.10;;
8837;SDS011;4455;50.880;4.698;2022-07-15T09:25:38;3.20;;;1.30;;
8837;SDS011;4455;50.880;4.698;2022-07-15T09:28:05;4.50;;;1.20;;
8837;SDS011;4455;50.880;4.698;2022-07-15T09:30:39;5.70;;;1.40;;
8837;SDS011;4455;50.880;4.698;2022-07-15T09:33:27;2.70;;;1.13;;
8837;SDS011;4455;50.880;4.698;2022-07-15T09:36:11;2.43;;;1.40;;
8837;SDS011;4455;50.880;4.698;2022-07-15T09:38:44;4.63;;;1.40;;
8837;SDS011;4455;50.880;4.698;2022-07-15T09:46:25;5.73;;;1.70;;
8837;SDS011;4455;50.880;4.698;2022-07-15T09:48:52;1.90;;;0.90;;
8837;SDS011;4455;50.880;4.698;2022-07-15T09:51:20;4.17;;;1.50;;
8837;SDS011;4455;50.880;4.698;2022-07-15T09:53:48;5.77;;;1.30;;
8837;SDS011;4455;50.880;4.698;2022-07-15T09:56:17;3.47;;;1.30;;
8837;SDS011;4455;50.880;4.698;2022-07-15T09:58:47;2.77;;;1.23;;
8837;SDS011;4455;50.880;4.698;2022-07-15T10:01:14;2.07;;;1.10;;
8837;SDS011;4455;50.880;4.698;2022-07-15T10:03:40;3.50;;;1.30;;
8837;SDS011;4455;50.880;4.698;2022-07-15T10:06:06;4.37;;;1.40;;
8837;SDS011;4455;50.880;4.698;2022-07-15T10:08:34;1.77;;;1.10;;
8837;SDS011;4455;50.880;4.698;2022-07-15T10:11:07;4.00;;;1.67;;
8837;SDS011;4455;50.880;4.698;2022-07-15T10:13:57;3.20;;;1.27;;
8837;SDS011;4455;50.880;4.698;2022-07-15T10:16:43;2.17;;;1.17;;
8837;SDS011;4455;50.880;4.698;2022-07-15T10:19:50;3.50;;;1.20;;
8837;SDS011;4455;50.880;4.698;2022-07-15T10:31:16;2.83;;;1.40;;
8837;SDS011;4455;50.880;4.698;2022-07-15T10:39:16;2.60;;;1.20;;
8837;SDS011;4455;50.880;4.698;2022-07-15T10:44:18;3.70;;;1.27;;
8837;SDS011;4455;50.880;4.698;2022-07-15T10:49:34;4.27;;;1.00;;
8837;SDS011;4455;50.880;4.698;2022-07-15T10:54:42;3.87;;;1.00;;
8837;SDS011;4455;50.880;4.698;2022-07-15T10:57:11;1.87;;;0.93;;
8837;SDS011;4455;50.880;4.698;2022-07-15T10:59:46;3.07;;;1.00;;
8837;SDS011;4455;50.880;4.698;2022-07-15T11:02:17;1.50;;;0.90;;
8837;SDS011;4455;50.880;4.698;2022-07-15T11:04:45;1.77;;;1.20;;
8837;SDS011;4455;50.880;4.698;2022-07-15T11:12:54;3.17;;;1.20;;
8837;SDS011;4455;50.880;4.698;2022-07-15T11:15:14;3.43;;;1.30;;
8837;SDS011;4455;50.880;4.698;2022-07-15T11:17:45;1.67;;;0.93;;
8837;SDS011;4455;50.880;4.698;2022-07-15T11:20:17;1.23;;;1.00;;
8837;SDS011;4455;50.880;4.698;2022-07-15T11:22:47;1.87;;;1.00;;
8837;SDS011;4455;50.880;4.698;2022-07-15T11:27:55;3.77;;;1.20;;
8837;SDS011;4455;50.880;4.698;2022-07-15T11:30:25;1.70;;;1.00;;
8837;SDS011;4455;50.880;4.698;2022-07-15T11:32:56;2.10;;;1.10;;
8837;SDS011;4455;50.880;4.698;2022-07-15T11:35:23;1.93;;;1.23;;
8837;SDS011;4455;50.880;4.698;2022-07-15T11:37:56;2.87;;;1.20;;
8837;SDS011;4455;50.880;4.698;2022-07-15T11:40:25;3.67;;;1.30;;
8837;SDS011;4455;50.880;4.698;2022-07-15T11:43:16;2.67;;;1.10;;
8837;SDS011;4455;50.880;4.698;2022-07-15T11:46:03;2.90;;;1.20;;
8837;SDS011;4455;50.880;4.698;2022-07-15T11:48:37;1.50;;;1.10;;
8837;SDS011;4455;50.880;4.698;2022-07-15T11:51:04;1.83;;;1.10;;
8837;SDS011;4455;50.880;4.698;2022-07-15T11:53:42;2.40;;;1.20;;
8837;SDS011;4455;50.880;4.698;2022-07-15T11:56:11;1.40;;;1.30;;
8837;SDS011;4455;50.880;4.698;2022-07-15T12:01:13;2.50;;;1.00;;
8837;SDS011;4455;50.880;4.698;2022-07-15T12:03:42;1.30;;;1.20;;
8837;SDS011;4455;50.880;4.698;2022-07-15T12:06:15;3.57;;;1.17;;
8837;SDS011;4455;50.880;4.698;2022-07-15T12:08:43;1.70;;;1.20;;
8837;SDS011;4455;50.880;4.698;2022-07-15T12:11:27;3.07;;;1.07;;
8837;SDS011;4455;50.880;4.698;2022-07-15T12:16:38;2.43;;;1.20;;
8837;SDS011;4455;50.880;4.698;2022-07-15T12:19:08;1.73;;;1.10;;
8837;SDS011;4455;50.880;4.698;2022-07-15T12:21:38;4.83;;;1.67;;
8837;SDS011;4455;50.880;4.698;2022-07-15T12:24:15;1.83;;;1.33;;
8837;SDS011;4455;50.880;4.698;2022-07-15T12:29:19;2.23;;;1.20;;
8837;SDS011;4455;50.880;4.698;2022-07-15T12:31:54;2.57;;;1.30;;
8837;SDS011;4455;50.880;4.698;2022-07-15T12:34:22;3.90;;;1.00;;
8837;SDS011;4455;50.880;4.698;2022-07-15T12:37:08;2.50;;;1.27;;
8837;SDS011;4455;50.880;4.698;2022-07-15T12:39:34;2.13;;;1.27;;
8837;SDS011;4455;50.880;4.698;2022-07-15T12:42:19;3.57;;;1.27;;
8837;SDS011;4455;50.880;4.698;2022-07-15T12:44:45;2.13;;;1.30;;
8837;SDS011;4455;50.880;4.698;2022-07-15T12:47:11;3.83;;;1.50;;
8837;SDS011;4455;50.880;4.698;2022-07-15T12:49:46;1.90;;;1.43;;
8837;SDS011;4455;50.880;4.698;2022-07-15T12:54:51;2.73;;;1.30;;
8837;SDS011;4455;50.880;4.698;2022-07-15T12:57:31;2.40;;;1.10;;
8837;SDS011;4455;50.880;4.698;2022-07-15T13:00:23;5.57;;;1.50;;
8837;SDS011;4455;50.880;4.698;2022-07-15T13:03:09;3.67;;;1.60;;
8837;SDS011;4455;50.880;4.698;2022-07-15T13:05:43;2.53;;;1.37;;
8837;SDS011;4455;50.880;4.698;2022-07-15T13:08:17;4.23;;;1.50;;
8837;SDS011;4455;50.880;4.698;2022-07-15T13:10:46;2.87;;;1.40;;
8837;SDS011;4455;50.880;4.698;2022-07-15T13:13:14;2.00;;;1.30;;
8837;SDS011;4455;50.880;4.698;2022-07-15T13:15:42;3.53;;;1.40;;
8837;SDS011;4455;50.880;4.698;2022-07-15T13:18:08;2.30;;;1.60;;
8837;SDS011;4455;50.880;4.698;2022-07-15T13:20:37;2.80;;;1.80;;
8837;SDS011;4455;50.880;4.698;2022-07-15T13:23:03;3.07;;;1.60;;
8837;SDS011;4455;50.880;4.698;2022-07-15T13:25:29;2.67;;;1.30;;
8837;SDS011;4455;50.880;4.698;2022-07-15T13:27:57;4.10;;;1.93;;
8837;SDS011;4455;50.880;4.698;2022-07-15T13:32:57;2.93;;;1.83;;
8837;SDS011;4455;50.880;4.698;2022-07-15T13:35:25;2.10;;;1.90;;
8837;SDS011;4455;50.880;4.698;2022-07-15T13:37:52;5.33;;;1.90;;
8837;SDS011;4455;50.880;4.698;2022-07-15T13:40:18;3.20;;;1.70;;
8837;SDS011;4455;50.880;4.698;2022-07-15T13:42:55;3.83;;;1.90;;
8837;SDS011;4455;50.880;4.698;2022-07-15T13:45:22;1.80;;;1.53;;
8837;SDS011;4455;50.880;4.698;2022-07-15T13:50:41;5.20;;;2.10;;
8837;SDS011;4455;50.880;4.698;2022-07-15T13:53:28;4.50;;;1.60;;
8837;SDS011;4455;50.880;4.698;2022-07-15T13:58:32;3.20;;;1.87;;
8837;SDS011;4455;50.880;4.698;2022-07-15T14:01:01;2.17;;;1.50;;
8837;SDS011;4455;50.880;4.698;2022-07-15T14:03:27;4.73;;;1.73;;
8837;SDS011;4455;50.880;4.698;2022-07-15T14:05:57;2.27;;;1.67;;
8837;SDS011;4455;50.880;4.698;2022-07-15T14:08:31;3.73;;;1.60;;
8837;SDS011;4455;50.880;4.698;2022-07-15T14:10:57;1.77;;;1.67;;
8837;SDS011;4455;50.880;4.698;2022-07-15T14:13:23;2.83;;;1.30;;
8837;SDS011;4455;50.880;4.698;2022-07-15T14:15:49;2.80;;;1.30;;
8837;SDS011;4455;50.880;4.698;2022-07-15T14:18:15;1.47;;;1.10;;
8837;SDS011;4455;50.880;4.698;2022-07-15T14:20:50;2.10;;;1.47;;
8837;SDS011;4455;50.880;4.698;2022-07-15T14:23:16;4.47;;;1.43;;
8837;SDS011;4455;50.880;4.698;2022-07-15T14:25:45;2.73;;;1.40;;
8837;SDS011;4455;50.880;4.698;2022-07-15T14:28:11;4.20;;;1.40;;
8837;SDS011;4455;50.880;4.698;2022-07-15T14:30:37;2.27;;;1.40;;
8837;SDS011;4455;50.880;4.698;2022-07-15T14:33:03;2.20;;;1.30;;
8837;SDS011;4455;50.880;4.698;2022-07-15T14:35:35;4.63;;;1.37;;
8837;SDS011;4455;50.880;4.698;2022-07-15T14:38:20;1.93;;;1.37;;
8837;SDS011;4455;50.880;4.698;2022-07-15T14:40:46;4.03;;;1.47;;
8837;SDS011;4455;50.880;4.698;2022-07-15T14:43:11;5.87;;;1.53;;
8837;SDS011;4455;50.880;4.698;2022-07-15T14:45:38;4.07;;;1.70;;
8837;SDS011;4455;50.880;4.698;2022-07-15T14:48:04;2.73;;;1.40;;
8837;SDS011;4455;50.880;4.698;2022-07-15T14:50:31;3.57;;;1.50;;
8837;SDS011;4455;50.880;4.698;2022-07-15T14:52:59;4.00;;;1.40;;
8837;SDS011;4455;50.880;4.698;2022-07-15T14:55:25;3.57;;;1.50;;
8837;SDS011;4455;50.880;4.698;2022-07-15T14:57:52;1.73;;;1.40;;
8837;SDS011;4455;50.880;4.698;2022-07-15T15:00:18;3.73;;;1.57;;
8837;SDS011;4455;50.880;4.698;2022-07-15T15:02:44;2.63;;;1.30;;
8837;SDS011;4455;50.880;4.698;2022-07-15T15:05:11;2.83;;;1.37;;
8837;SDS011;4455;50.880;4.698;2022-07-15T15:07:37;2.27;;;1.40;;
8837;SDS011;4455;50.880;4.698;2022-07-15T15:10:02;2.77;;;1.87;;
8837;SDS011;4455;50.880;4.698;2022-07-15T15:12:29;4.07;;;1.70;;
8837;SDS011;4455;50.880;4.698;2022-07-15T15:14:54;3.30;;;1.40;;
8837;SDS011;4455;50.880;4.698;2022-07-15T15:17:20;3.53;;;1.40;;
8837;SDS011;4455;50.880;4.698;2022-07-15T15:19:46;3.03;;;1.60;;
8837;SDS011;4455;50.880;4.698;2022-07-15T15:22:13;3.13;;;1.73;;
8837;SDS011;4455;50.880;4.698;2022-07-15T15:24:39;4.33;;;1.40;;
8837;SDS011;4455;50.880;4.698;2022-07-15T15:27:05;3.87;;;1.73;;
8837;SDS011;4455;50.880;4.698;2022-07-15T15:29:32;3.67;;;1.70;;
8837;SDS011;4455;50.880;4.698;2022-07-15T15:31:59;3.47;;;1.53;;
8837;SDS011;4455;50.880;4.698;2022-07-15T15:34:26;2.13;;;1.60;;
8837;SDS011;4455;50.880;4.698;2022-07-15T15:36:54;2.43;;;1.53;;
8837;SDS011;4455;50.880;4.698;2022-07-15T15:39:21;2.70;;;1.70;;
8837;SDS011;4455;50.880;4.698;2022-07-15T15:41:47;3.00;;;1.60;;
8837;SDS011;4455;50.880;4.698;2022-07-15T15:44:13;4.33;;;2.13;;
8837;SDS011;4455;50.880;4.698;2022-07-15T15:46:39;3.80;;;1.30;;
8837;SDS011;4455;50.880;4.698;2022-07-15T15:49:06;3.90;;;1.80;;
8837;SDS011;4455;50.880;4.698;2022-07-15T15:51:32;2.20;;;1.43;;
8837;SDS011;4455;50.880;4.698;2022-07-15T15:53:58;3.50;;;1.50;;
8837;SDS011;4455;50.880;4.698;2022-07-15T15:56:24;2.40;;;1.53;;
8837;SDS011;4455;50.880;4.698;2022-07-15T15:58:50;2.53;;;1.47;;
8837;SDS011;4455;50.880;4.698;2022-07-15T16:01:16;2.03;;;1.67;;
8837;SDS011;4455;50.880;4.698;2022-07-15T16:03:42;5.10;;;1.73;;
8837;SDS011;4455;50.880;4.698;2022-07-15T16:06:08;3.53;;;1.60;;
8837;SDS011;4455;50.880;4.698;2022-07-15T16:08:34;3.93;;;1.77;;
8837;SDS011;4455;50.880;4.698;2022-07-15T16:11:00;2.90;;;1.67;;
8837;SDS011;4455;50.880;4.698;2022-07-15T16:13:27;2.30;;;1.37;;
8837;SDS011;4455;50.880;4.698;2022-07-15T16:15:53;2.37;;;1.77;;
8837;SDS011;4455;50.880;4.698;2022-07-15T16:18:19;1.87;;;1.30;;
8837;SDS011;4455;50.880;4.698;2022-07-15T16:20:45;3.57;;;1.77;;
8837;SDS011;4455;50.880;4.698;2022-07-15T16:23:11;3.80;;;1.40;;